Wetterdaten: aktuell Mittwoch, 13.11.2019 17:24
Datum Zeit Temp. A. Feuchte A. Luftdruck Regen Wind Richtung Richtung Taupunkt Windchill Windben
13.11.2019 17:24 2,4 C 93 % 1008,8 hPa 0,0 l/m 4,8 km/h (1 Bft) S-SW 202 1,4 C 2,4 C 4,8 km/h (1 Bft)
13.11.2019 16:24 2,5 C 93 % 1008,4 hPa 0,2 l/m 6,4 km/h (2 Bft) S-SW 202 1,5 C 2,5 C 8,0 km/h (2 Bft)
13.11.2019 15:24 3,1 C 93 % 1008,0 hPa 0,6 l/m 6,4 km/h (2 Bft) S-SO 157 2,1 C 3,1 C 9,7 km/h (2 Bft)
13.11.2019 14:24 3,2 C 94 % 1007,7 hPa 0,6 l/m 6,4 km/h (2 Bft) S 180 2,3 C 3,2 C 9,7 km/h (2 Bft)
13.11.2019 13:24 2,7 C 94 % 1007,3 hPa 0,6 l/m 6,4 km/h (2 Bft) S-SW 202 1,8 C 2,7 C 9,7 km/h (2 Bft)
13.11.2019 12:24 2,2 C 94 % 1006,8 hPa 0,8 l/m 6,4 km/h (2 Bft) S-SW 202 1,3 C 2,2 C 8,0 km/h (2 Bft)
13.11.2019 11:24 1,6 C 94 % 1006,8 hPa 1,0 l/m 6,4 km/h (2 Bft) S-SW 202 0,7 C 1,6 C 8,0 km/h (2 Bft)
13.11.2019 10:24 1,6 C 94 % 1006,9 hPa 1,0 l/m 6,4 km/h (2 Bft) S-SW 202 0,7 C 1,6 C 6,4 km/h (2 Bft)
13.11.2019 09:24 1,1 C 93 % 1006,9 hPa 0,4 l/m 4,8 km/h (1 Bft) S-SW 202 0,1 C 1,1 C 4,8 km/h (1 Bft)
13.11.2019 08:24 0,9 C 94 % 1006,5 hPa 0,0 l/m 4,8 km/h (1 Bft) S-SW 202 0,0 C 0,9 C 6,4 km/h (2 Bft)
13.11.2019 07:24 0,4 C 93 % 1006,3 hPa 0,0 l/m 0,0 km/h (0 Bft) N 0 -0,6 C 0,4 C 0,0 km/h (0 Bft)
13.11.2019 06:24 0,3 C 93 % 1005,9 hPa 0,0 l/m 3,2 km/h (1 Bft) S-SW 202 -0,7 C 0,3 C 3,2 km/h (1 Bft)
13.11.2019 05:24 0,2 C 93 % 1005,7 hPa 0,2 l/m 1,6 km/h (1 Bft) S-SO 157 -0,8 C 0,2 C 4,8 km/h (1 Bft)
13.11.2019 04:24 0,3 C 93 % 1005,9 hPa 0,0 l/m 0,0 km/h (0 Bft) N 0 -0,7 C 0,3 C 0,0 km/h (0 Bft)
13.11.2019 03:24 0,4 C 93 % 1005,5 hPa 0,0 l/m 0,0 km/h (0 Bft) N 0 -0,6 C 0,4 C 0,0 km/h (0 Bft)
13.11.2019 02:24 0,4 C 92 % 1005,7 hPa 0,0 l/m 1,6 km/h (1 Bft) S-SW 202 -0,7 C 0,4 C 1,6 km/h (1 Bft)
13.11.2019 01:24 0,4 C 92 % 1006,2 hPa 0,0 l/m 0,0 km/h (0 Bft) N 0 -0,7 C 0,4 C 0,0 km/h (0 Bft)
13.11.2019 00:24 0,4 C 92 % 1006,7 hPa 0,0 l/m 0,0 km/h (0 Bft) N 0 -0,7 C 0,4 C 0,0 km/h (0 Bft)
12.11.2019 23:24 0,4 C 91 % 1007,2 hPa 0,0 l/m 0,0 km/h (0 Bft) N 0 -0,9 C 0,4 C 0,0 km/h (0 Bft)
12.11.2019 22:24 0,6 C 90 % 1008,0 hPa 0,0 l/m 4,8 km/h (1 Bft) S-SW 202 -0,8 C 0,6 C 6,4 km/h (2 Bft)
12.11.2019 21:24 1,5 C 90 % 1008,3 hPa 0,6 l/m 1,6 km/h (1 Bft) S-SO 157 0,0 C 1,5 C 3,2 km/h (1 Bft)
12.11.2019 20:24 2,6 C 90 % 1008,7 hPa 0,2 l/m 3,2 km/h (1 Bft) O 90 1,1 C 2,6 C 9,7 km/h (2 Bft)
12.11.2019 19:24 2,9 C 88 % 1008,6 hPa 1,4 l/m 8,0 km/h (2 Bft) O-SO 112 1,1 C 1,4 C 12,9 km/h (3 Bft)
12.11.2019 18:24 4,2 C 90 % 1008,7 hPa 0,2 l/m 3,2 km/h (1 Bft) O-NO 67 2,7 C 4,2 C 3,2 km/h (1 Bft)
12.11.2019 18:00 4,1 C 90 % 1008,3 hPa 0,0 l/m 0,0 km/h (0 Bft) SW 225 2,6 C 4,1 C 1,6 km/h (1 Bft)
_ Min-Zeit 04:28 18:33 03:17 - 18:00 - - 22:41 18:27 19:29
Minimum _ 0,2 C 87 % 1005,4 hPa - 0,0 km/h (0 Bft) - - -1,0 C -3,9 C 0,0 km/h (0 Bft)
_ Max-Zeit 18:18 08:15 18:31 18:22 18:27 - - 18:19 18:19 18:28
Maximum _ 4,3 C 94 % 1009,1 hPa 0,2 l/m 19,3 km/h
SW (3 Bft)
- - 2,8 C 4,3 C 29,0 km/h
SW (5 Bft)
Durchschnitt _ 1,7 C 92 % 1007,2 hPa #7,8 l/m 3,1 km/h (1 Bft) S-SW - 0,5 C 1,6 C 4,3 km/h (1 Bft)